sensor_id;sensor_type;location;lat;lon;timestamp;pressure;altitude;pressure_sealevel;temperature;humidity
48668;BME280;34453;52.198;5.004;2023-05-03T00:00:12;103143.78;;;6.21;100.00
48668;BME280;34453;52.198;5.004;2023-05-03T00:02:40;103139.41;;;6.22;100.00
48668;BME280;34453;52.198;5.004;2023-05-03T00:05:06;103142.09;;;6.20;100.00
48668;BME280;34453;52.198;5.004;2023-05-03T00:07:37;103142.63;;;6.29;100.00
48668;BME280;34453;52.198;5.004;2023-05-03T00:10:02;103137.56;;;6.26;100.00
48668;BME280;34453;52.198;5.004;2023-05-03T00:12:28;103141.22;;;6.20;100.00
48668;BME280;34453;52.198;5.004;2023-05-03T00:14:53;103146.75;;;6.11;100.00
48668;BME280;34453;52.198;5.004;2023-05-03T00:17:19;103151.13;;;6.10;100.00
48668;BME280;34453;52.198;5.004;2023-05-03T00:19:44;103146.97;;;6.05;100.00
48668;BME280;34453;52.198;5.004;2023-05-03T00:22:10;103137.38;;;6.07;100.00
48668;BME280;34453;52.198;5.004;2023-05-03T00:24:36;103132.47;;;5.99;100.00
48668;BME280;34453;52.198;5.004;2023-05-03T00:27:03;103137.81;;;5.94;100.00
48668;BME280;34453;52.198;5.004;2023-05-03T00:29:28;103139.66;;;5.91;100.00
48668;BME280;34453;52.198;5.004;2023-05-03T00:31:54;103136.53;;;5.81;100.00
48668;BME280;34453;52.198;5.004;2023-05-03T00:34:19;103140.19;;;5.75;100.00
48668;BME280;34453;52.198;5.004;2023-05-03T00:36:45;103141.78;;;5.79;100.00
48668;BME280;34453;52.198;5.004;2023-05-03T00:39:10;103138.84;;;5.89;100.00
48668;BME280;34453;52.198;5.004;2023-05-03T00:41:37;103141.69;;;5.82;100.00
48668;BME280;34453;52.198;5.004;2023-05-03T00:44:03;103137.25;;;5.85;100.00
48668;BME280;34453;52.198;5.004;2023-05-03T00:46:28;103145.03;;;5.85;100.00
48668;BME280;34453;52.198;5.004;2023-05-03T00:48:54;103138.38;;;5.77;100.00
48668;BME280;34453;52.198;5.004;2023-05-03T00:51:20;103143.78;;;5.71;100.00
48668;BME280;34453;52.198;5.004;2023-05-03T00:53:46;103138.09;;;5.60;100.00
48668;BME280;34453;52.198;5.004;2023-05-03T00:56:15;103148.00;;;5.49;100.00
48668;BME280;34453;52.198;5.004;2023-05-03T00:58:44;103147.81;;;5.55;100.00
48668;BME280;34453;52.198;5.004;2023-05-03T01:01:10;103149.38;;;5.60;100.00
48668;BME280;34453;52.198;5.004;2023-05-03T01:03:36;103140.19;;;5.50;100.00
48668;BME280;34453;52.198;5.004;2023-05-03T01:09:21;103146.22;;;5.51;100.00
48668;BME280;34453;52.198;5.004;2023-05-03T01:17:17;103148.72;;;5.54;100.00
48668;BME280;34453;52.198;5.004;2023-05-03T01:19:54;103149.41;;;5.59;100.00
48668;BME280;34453;52.198;5.004;2023-05-03T01:22:36;103151.09;;;5.60;100.00
48668;BME280;34453;52.198;5.004;2023-05-03T01:25:10;103148.66;;;5.55;100.00
48668;BME280;34453;52.198;5.004;2023-05-03T01:27:37;103145.34;;;5.52;100.00
48668;BME280;34453;52.198;5.004;2023-05-03T01:30:09;103144.84;;;5.40;100.00
48668;BME280;34453;52.198;5.004;2023-05-03T01:33:02;103139.59;;;5.42;100.00
48668;BME280;34453;52.198;5.004;2023-05-03T01:35:34;103138.13;;;5.33;100.00
48668;BME280;34453;52.198;5.004;2023-05-03T01:38:01;103138.28;;;5.29;100.00
48668;BME280;34453;52.198;5.004;2023-05-03T01:40:28;103141.66;;;5.32;100.00
48668;BME280;34453;52.198;5.004;2023-05-03T01:42:55;103145.13;;;5.31;100.00
48668;BME280;34453;52.198;5.004;2023-05-03T01:45:21;103143.25;;;5.36;100.00
48668;BME280;34453;52.198;5.004;2023-05-03T01:47:47;103138.06;;;5.36;100.00
48668;BME280;34453;52.198;5.004;2023-05-03T01:50:12;103136.47;;;5.32;100.00
48668;BME280;34453;52.198;5.004;2023-05-03T01:52:38;103138.44;;;5.24;100.00
48668;BME280;34453;52.198;5.004;2023-05-03T01:55:04;103132.53;;;5.21;100.00
48668;BME280;34453;52.198;5.004;2023-05-03T01:57:30;103134.22;;;5.22;100.00
48668;BME280;34453;52.198;5.004;2023-05-03T01:59:55;103130.78;;;5.21;100.00
48668;BME280;34453;52.198;5.004;2023-05-03T02:02:21;103121.19;;;5.23;100.00
48668;BME280;34453;52.198;5.004;2023-05-03T02:04:46;103114.28;;;5.22;100.00
48668;BME280;34453;52.198;5.004;2023-05-03T02:07:12;103109.84;;;5.26;100.00
48668;BME280;34453;52.198;5.004;2023-05-03T02:09:37;103108.84;;;5.30;100.00
48668;BME280;34453;52.198;5.004;2023-05-03T02:12:03;103107.06;;;5.32;100.00
48668;BME280;34453;52.198;5.004;2023-05-03T02:14:28;103099.03;;;5.38;100.00
48668;BME280;34453;52.198;5.004;2023-05-03T02:16:54;103094.66;;;5.40;100.00
48668;BME280;34453;52.198;5.004;2023-05-03T02:19:20;103098.91;;;5.43;100.00
48668;BME280;34453;52.198;5.004;2023-05-03T02:21:45;103092.81;;;5.44;100.00
48668;BME280;34453;52.198;5.004;2023-05-03T02:24:11;103083.09;;;5.49;100.00
48668;BME280;34453;52.198;5.004;2023-05-03T02:26:36;103078.81;;;5.48;100.00
48668;BME280;34453;52.198;5.004;2023-05-03T02:29:02;103068.44;;;5.48;100.00
48668;BME280;34453;52.198;5.004;2023-05-03T02:31:28;103059.97;;;5.43;100.00
48668;BME280;34453;52.198;5.004;2023-05-03T02:33:53;103074.59;;;5.45;100.00
48668;BME280;34453;52.198;5.004;2023-05-03T02:36:19;103077.91;;;5.49;100.00
48668;BME280;34453;52.198;5.004;2023-05-03T02:38:45;103082.47;;;5.42;100.00
48668;BME280;34453;52.198;5.004;2023-05-03T02:41:11;103085.06;;;5.42;100.00
48668;BME280;34453;52.198;5.004;2023-05-03T02:43:36;103097.09;;;5.45;100.00
48668;BME280;34453;52.198;5.004;2023-05-03T02:46:01;103109.34;;;5.41;100.00
48668;BME280;34453;52.198;5.004;2023-05-03T02:48:27;103104.88;;;5.45;100.00
48668;BME280;34453;52.198;5.004;2023-05-03T02:50:52;103103.31;;;5.40;100.00
48668;BME280;34453;52.198;5.004;2023-05-03T02:53:19;103104.88;;;5.45;100.00
48668;BME280;34453;52.198;5.004;2023-05-03T02:55:44;103114.34;;;5.47;100.00
48668;BME280;34453;52.198;5.004;2023-05-03T02:58:10;103113.47;;;5.47;100.00
48668;BME280;34453;52.198;5.004;2023-05-03T03:00:36;103113.47;;;5.47;100.00
48668;BME280;34453;52.198;5.004;2023-05-03T03:03:01;103122.16;;;5.46;100.00
48668;BME280;34453;52.198;5.004;2023-05-03T03:05:27;103122.91;;;5.49;100.00
48668;BME280;34453;52.198;5.004;2023-05-03T03:07:53;103122.03;;;5.49;100.00
48668;BME280;34453;52.198;5.004;2023-05-03T03:10:18;103125.34;;;5.54;100.00
48668;BME280;34453;52.198;5.004;2023-05-03T03:12:43;103114.06;;;5.55;100.00
48668;BME280;34453;52.198;5.004;2023-05-03T03:15:09;103113.19;;;5.56;100.00
48668;BME280;34453;52.198;5.004;2023-05-03T03:17:35;103120.03;;;5.57;100.00
48668;BME280;34453;52.198;5.004;2023-05-03T03:20:07;103114.97;;;5.54;100.00
48668;BME280;34453;52.198;5.004;2023-05-03T03:22:36;103109.88;;;5.51;100.00
48668;BME280;34453;52.198;5.004;2023-05-03T03:25:01;103115.84;;;5.53;100.00
48668;BME280;34453;52.198;5.004;2023-05-03T03:27:27;103123.84;;;5.47;100.00
48668;BME280;34453;52.198;5.004;2023-05-03T03:29:52;103119.25;;;5.30;100.00
48668;BME280;34453;52.198;5.004;2023-05-03T03:32:18;103132.31;;;5.27;100.00
48668;BME280;34453;52.198;5.004;2023-05-03T03:34:43;103126.38;;;5.23;100.00
48668;BME280;34453;52.198;5.004;2023-05-03T03:37:08;103133.31;;;5.23;100.00
48668;BME280;34453;52.198;5.004;2023-05-03T03:39:34;103129.16;;;5.17;100.00
48668;BME280;34453;52.198;5.004;2023-05-03T03:41:59;103130.97;;;5.15;100.00
48668;BME280;34453;52.198;5.004;2023-05-03T03:44:25;103129.06;;;5.20;100.00
48668;BME280;34453;52.198;5.004;2023-05-03T03:46:50;103130.13;;;5.14;100.00
48668;BME280;34453;52.198;5.004;2023-05-03T03:49:16;103126.78;;;5.11;100.00
48668;BME280;34453;52.198;5.004;2023-05-03T03:51:41;103131.53;;;4.98;100.00
48668;BME280;34453;52.198;5.004;2023-05-03T03:54:06;103125.53;;;4.96;100.00
48668;BME280;34453;52.198;5.004;2023-05-03T03:56:32;103128.19;;;4.93;100.00
48668;BME280;34453;52.198;5.004;2023-05-03T03:58:57;103121.56;;;4.84;100.00
48668;BME280;34453;52.198;5.004;2023-05-03T04:01:23;103134.44;;;4.87;100.00
48668;BME280;34453;52.198;5.004;2023-05-03T04:03:49;103134.22;;;4.93;100.00
48668;BME280;34453;52.198;5.004;2023-05-03T04:06:14;103137.69;;;4.66;100.00
48668;BME280;34453;52.198;5.004;2023-05-03T04:08:40;103133.88;;;4.49;100.00
48668;BME280;34453;52.198;5.004;2023-05-03T04:11:11;103133.09;;;4.46;100.00
48668;BME280;34453;52.198;5.004;2023-05-03T04:13:37;103146.84;;;4.49;100.00
48668;BME280;34453;52.198;5.004;2023-05-03T04:16:03;103150.09;;;4.56;100.00
48668;BME280;34453;52.198;5.004;2023-05-03T04:18:29;103152.63;;;4.57;100.00
48668;BME280;34453;52.198;5.004;2023-05-03T04:20:54;103152.56;;;4.61;100.00
48668;BME280;34453;52.198;5.004;2023-05-03T04:23:20;103164.53;;;4.65;100.00
48668;BME280;34453;52.198;5.004;2023-05-03T04:25:46;103168.78;;;4.67;100.00
48668;BME280;34453;52.198;5.004;2023-05-03T04:28:12;103168.72;;;4.69;100.00
48668;BME280;34453;52.198;5.004;2023-05-03T04:30:39;103163.50;;;4.70;100.00
48668;BME280;34453;52.198;5.004;2023-05-03T04:33:06;103180.78;;;4.70;100.00
48668;BME280;34453;52.198;5.004;2023-05-03T04:35:31;103174.63;;;4.74;100.00
48668;BME280;34453;52.198;5.004;2023-05-03T04:37:56;103174.53;;;4.77;100.00
48668;BME280;34453;52.198;5.004;2023-05-03T04:40:22;103178.72;;;4.81;100.00
48668;BME280;34453;52.198;5.004;2023-05-03T04:42:47;103175.19;;;4.84;100.00
48668;BME280;34453;52.198;5.004;2023-05-03T04:45:13;103165.72;;;4.83;100.00
48668;BME280;34453;52.198;5.004;2023-05-03T04:47:39;103178.56;;;4.87;100.00
48668;BME280;34453;52.198;5.004;2023-05-03T04:50:05;103180.16;;;4.91;100.00
48668;BME280;34453;52.198;5.004;2023-05-03T04:52:32;103176.69;;;4.91;100.00
48668;BME280;34453;52.198;5.004;2023-05-03T04:54:57;103187.94;;;4.91;100.00
48668;BME280;34453;52.198;5.004;2023-05-03T04:57:23;103192.13;;;4.95;100.00
48668;BME280;34453;52.198;5.004;2023-05-03T04:59:48;103187.53;;;5.04;100.00
48668;BME280;34453;52.198;5.004;2023-05-03T05:02:14;103188.50;;;5.01;100.00
48668;BME280;34453;52.198;5.004;2023-05-03T05:04:40;103195.59;;;4.96;100.00
48668;BME280;34453;52.198;5.004;2023-05-03T05:07:05;103180.91;;;4.95;100.00
48668;BME280;34453;52.198;5.004;2023-05-03T05:09:30;103187.66;;;5.01;100.00
48668;BME280;34453;52.198;5.004;2023-05-03T05:11:56;103200.38;;;5.08;100.00
48668;BME280;34453;52.198;5.004;2023-05-03T05:14:22;103193.34;;;5.12;100.00
48668;BME280;34453;52.198;5.004;2023-05-03T05:16:47;103193.94;;;5.20;100.00
48668;BME280;34453;52.198;5.004;2023-05-03T05:19:13;103202.34;;;5.28;100.00
48668;BME280;34453;52.198;5.004;2023-05-03T05:21:38;103188.25;;;5.35;100.00
48668;BME280;34453;52.198;5.004;2023-05-03T05:24:04;103189.66;;;5.46;100.00
48668;BME280;34453;52.198;5.004;2023-05-03T05:26:30;103184.84;;;5.60;100.00
48668;BME280;34453;52.198;5.004;2023-05-03T05:28:56;103188.00;;;5.70;100.00
48668;BME280;34453;52.198;5.004;2023-05-03T05:31:21;103184.81;;;5.87;100.00
48668;BME280;34453;52.198;5.004;2023-05-03T05:33:47;103179.13;;;6.02;100.00
48668;BME280;34453;52.198;5.004;2023-05-03T05:36:13;103174.47;;;6.12;100.00
48668;BME280;34453;52.198;5.004;2023-05-03T05:38:39;103182.44;;;6.31;100.00
48668;BME280;34453;52.198;5.004;2023-05-03T05:41:04;103181.28;;;6.38;100.00
48668;BME280;34453;52.198;5.004;2023-05-03T05:43:30;103181.81;;;6.48;100.00
48668;BME280;34453;52.198;5.004;2023-05-03T05:45:55;103174.41;;;6.60;100.00
48668;BME280;34453;52.198;5.004;2023-05-03T05:48:21;103180.72;;;6.77;100.00
48668;BME280;34453;52.198;5.004;2023-05-03T05:50:46;103176.06;;;6.85;100.00
48668;BME280;34453;52.198;5.004;2023-05-03T05:53:13;103186.81;;;6.98;100.00
48668;BME280;34453;52.198;5.004;2023-05-03T05:55:38;103190.72;;;7.10;100.00
48668;BME280;34453;52.198;5.004;2023-05-03T05:58:04;103182.91;;;7.10;100.00
48668;BME280;34453;52.198;5.004;2023-05-03T06:00:29;103177.97;;;7.24;100.00
48668;BME280;34453;52.198;5.004;2023-05-03T06:02:55;103179.31;;;7.34;100.00
48668;BME280;34453;52.198;5.004;2023-05-03T06:05:21;103186.53;;;7.48;100.00
48668;BME280;34453;52.198;5.004;2023-05-03T06:07:47;103178.41;;;7.56;100.00
48668;BME280;34453;52.198;5.004;2023-05-03T06:10:12;103176.84;;;7.52;100.00
48668;BME280;34453;52.198;5.004;2023-05-03T06:12:38;103170.59;;;7.56;100.00
48668;BME280;34453;52.198;5.004;2023-05-03T06:15:07;103172.03;;;7.63;100.00
48668;BME280;34453;52.198;5.004;2023-05-03T06:17:33;103177.06;;;7.67;100.00
48668;BME280;34453;52.198;5.004;2023-05-03T06:19:59;103167.06;;;7.77;100.00
48668;BME280;34453;52.198;5.004;2023-05-03T06:22:24;103165.25;;;7.79;100.00
48668;BME280;34453;52.198;5.004;2023-05-03T06:24:50;103165.00;;;7.85;100.00
48668;BME280;34453;52.198;5.004;2023-05-03T06:27:16;103162.34;;;7.87;100.00
48668;BME280;34453;52.198;5.004;2023-05-03T06:29:41;103172.66;;;7.88;100.00
48668;BME280;34453;52.198;5.004;2023-05-03T06:32:08;103179.97;;;8.01;100.00
48668;BME280;34453;52.198;5.004;2023-05-03T06:34:34;103173.34;;;8.13;100.00
48668;BME280;34453;52.198;5.004;2023-05-03T06:36:59;103167.16;;;8.15;100.00
48668;BME280;34453;52.198;5.004;2023-05-03T06:39:24;103164.78;;;8.29;100.00
48668;BME280;34453;52.198;5.004;2023-05-03T06:41:50;103160.34;;;8.32;100.00
48668;BME280;34453;52.198;5.004;2023-05-03T06:44:15;103154.66;;;8.42;100.00
48668;BME280;34453;52.198;5.004;2023-05-03T06:46:41;103147.72;;;8.60;100.00
48668;BME280;34453;52.198;5.004;2023-05-03T06:49:06;103146.41;;;8.70;100.00
48668;BME280;34453;52.198;5.004;2023-05-03T06:51:32;103145.56;;;8.70;100.00
48668;BME280;34453;52.198;5.004;2023-05-03T06:53:59;103147.16;;;8.73;100.00
48668;BME280;34453;52.198;5.004;2023-05-03T06:56:26;103141.94;;;8.73;100.00
48668;BME280;34453;52.198;5.004;2023-05-03T06:58:52;103149.34;;;8.82;100.00
48668;BME280;34453;52.198;5.004;2023-05-03T07:01:18;103139.50;;;8.87;100.00
48668;BME280;34453;52.198;5.004;2023-05-03T07:03:45;103129.06;;;8.87;100.00
48668;BME280;34453;52.198;5.004;2023-05-03T07:06:10;103128.66;;;8.96;100.00
48668;BME280;34453;52.198;5.004;2023-05-03T07:08:36;103130.31;;;8.97;100.00
48668;BME280;34453;52.198;5.004;2023-05-03T07:11:01;103126.94;;;8.95;100.00
48668;BME280;34453;52.198;5.004;2023-05-03T07:13:26;103120.50;;;9.02;100.00
48668;BME280;34453;52.198;5.004;2023-05-03T07:15:52;103117.13;;;9.18;100.00
48668;BME280;34453;52.198;5.004;2023-05-03T07:18:17;103123.28;;;9.17;100.00
48668;BME280;34453;52.198;5.004;2023-05-03T07:20:43;103126.50;;;9.22;100.00
48668;BME280;34453;52.198;5.004;2023-05-03T07:23:08;103120.91;;;9.29;100.00
48668;BME280;34453;52.198;5.004;2023-05-03T07:25:33;103110.22;;;9.34;100.00
48668;BME280;34453;52.198;5.004;2023-05-03T07:27:59;103111.38;;;9.46;100.00
48668;BME280;34453;52.198;5.004;2023-05-03T07:30:24;103114.50;;;9.52;100.00
48668;BME280;34453;52.198;5.004;2023-05-03T07:32:50;103108.25;;;9.72;100.00
48668;BME280;34453;52.198;5.004;2023-05-03T07:35:16;103106.72;;;9.68;100.00
48668;BME280;34453;52.198;5.004;2023-05-03T07:37:42;103095.19;;;9.72;100.00
48668;BME280;34453;52.198;5.004;2023-05-03T07:40:08;103094.09;;;9.77;100.00
48668;BME280;34453;52.198;5.004;2023-05-03T07:42:34;103094.44;;;9.86;100.00
48668;BME280;34453;52.198;5.004;2023-05-03T07:45:01;103100.69;;;9.84;100.00
48668;BME280;34453;52.198;5.004;2023-05-03T07:47:27;103100.56;;;10.03;100.00
48668;BME280;34453;52.198;5.004;2023-05-03T07:49:53;103099.03;;;9.99;100.00
48668;BME280;34453;52.198;5.004;2023-05-03T07:52:19;103100.19;;;9.93;100.00
48668;BME280;34453;52.198;5.004;2023-05-03T07:54:44;103097.53;;;10.10;100.00
48668;BME280;34453;52.198;5.004;2023-05-03T07:57:12;103101.09;;;10.25;100.00
48668;BME280;34453;52.198;5.004;2023-05-03T07:59:37;103100.41;;;10.22;100.00
48668;BME280;34453;52.198;5.004;2023-05-03T08:02:03;103104.47;;;10.27;100.00
48668;BME280;34453;52.198;5.004;2023-05-03T08:04:28;103089.38;;;10.32;100.00
48668;BME280;34453;52.198;5.004;2023-05-03T08:06:54;103085.41;;;10.25;100.00
48668;BME280;34453;52.198;5.004;2023-05-03T08:09:19;103084.41;;;10.44;100.00
48668;BME280;34453;52.198;5.004;2023-05-03T08:11:45;103079.06;;;10.61;100.00
48668;BME280;34453;52.198;5.004;2023-05-03T08:14:11;103079.34;;;10.56;100.00
48668;BME280;34453;52.198;5.004;2023-05-03T08:16:36;103078.22;;;10.45;100.00
48668;BME280;34453;52.198;5.004;2023-05-03T08:19:02;103076.13;;;10.67;100.00
48668;BME280;34453;52.198;5.004;2023-05-03T08:21:29;103076.38;;;10.93;100.00
48668;BME280;34453;52.198;5.004;2023-05-03T08:23:55;103080.84;;;10.91;100.00
48668;BME280;34453;52.198;5.004;2023-05-03T08:26:21;103078.19;;;11.07;100.00
48668;BME280;34453;52.198;5.004;2023-05-03T08:28:46;103080.69;;;10.94;100.00
48668;BME280;34453;52.198;5.004;2023-05-03T08:31:12;103088.41;;;11.11;100.00
48668;BME280;34453;52.198;5.004;2023-05-03T08:33:38;103085.06;;;11.24;100.00
48668;BME280;34453;52.198;5.004;2023-05-03T08:36:03;103087.59;;;11.25;100.00
48668;BME280;34453;52.198;5.004;2023-05-03T08:38:29;103094.78;;;11.07;100.00
48668;BME280;34453;52.198;5.004;2023-05-03T08:40:57;103088.38;;;11.41;100.00
48668;BME280;34453;52.198;5.004;2023-05-03T08:43:26;103100.13;;;11.20;100.00
48668;BME280;34453;52.198;5.004;2023-05-03T08:45:52;103096.13;;;11.29;100.00
48668;BME280;34453;52.198;5.004;2023-05-03T08:48:18;103097.66;;;11.47;100.00
48668;BME280;34453;52.198;5.004;2023-05-03T08:50:43;103092.81;;;11.70;100.00
48668;BME280;34453;52.198;5.004;2023-05-03T08:53:10;103103.06;;;11.87;100.00
48668;BME280;34453;52.198;5.004;2023-05-03T08:55:36;103102.44;;;11.83;100.00
48668;BME280;34453;52.198;5.004;2023-05-03T08:58:08;103103.31;;;11.98;100.00
48668;BME280;34453;52.198;5.004;2023-05-03T09:00:37;103104.88;;;12.30;100.00
48668;BME280;34453;52.198;5.004;2023-05-03T09:03:03;103093.84;;;12.52;100.00
48668;BME280;34453;52.198;5.004;2023-05-03T09:05:32;103096.25;;;12.55;100.00
48668;BME280;34453;52.198;5.004;2023-05-03T09:08:25;103096.78;;;12.60;100.00
48668;BME280;34453;52.198;5.004;2023-05-03T09:10:50;103094.50;;;12.68;100.00
48668;BME280;34453;52.198;5.004;2023-05-03T09:13:16;103085.28;;;12.75;100.00
48668;BME280;34453;52.198;5.004;2023-05-03T09:15:41;103088.13;;;12.72;100.00
48668;BME280;34453;52.198;5.004;2023-05-03T09:18:19;103091.16;;;13.06;100.00
48668;BME280;34453;52.198;5.004;2023-05-03T09:20:46;103097.25;;;13.19;100.00
48668;BME280;34453;52.198;5.004;2023-05-03T09:23:16;103088.28;;;13.09;100.00
48668;BME280;34453;52.198;5.004;2023-05-03T09:25:47;103086.97;;;13.29;100.00
48668;BME280;34453;52.198;5.004;2023-05-03T09:28:14;103082.56;;;13.42;100.00
48668;BME280;34453;52.198;5.004;2023-05-03T09:30:40;103074.38;;;13.34;100.00
48668;BME280;34453;52.198;5.004;2023-05-03T09:33:06;103091.41;;;13.41;100.00
48668;BME280;34453;52.198;5.004;2023-05-03T09:35:33;103092.69;;;13.48;100.00
48668;BME280;34453;52.198;5.004;2023-05-03T09:37:58;103087.19;;;13.52;100.00
48668;BME280;34453;52.198;5.004;2023-05-03T09:40:30;103085.53;;;13.51;100.00
48668;BME280;34453;52.198;5.004;2023-05-03T09:43:09;103089.19;;;13.74;100.00
48668;BME280;34453;52.198;5.004;2023-05-03T09:45:38;103083.16;;;13.84;100.00
48668;BME280;34453;52.198;5.004;2023-05-03T09:48:05;103087.59;;;13.84;100.00
48668;BME280;34453;52.198;5.004;2023-05-03T09:50:32;103079.78;;;13.95;100.00
48668;BME280;34453;52.198;5.004;2023-05-03T09:53:01;103077.88;;;14.10;100.00
48668;BME280;34453;52.198;5.004;2023-05-03T09:55:30;103078.66;;;14.23;100.00
48668;BME280;34453;52.198;5.004;2023-05-03T09:57:56;103073.81;;;14.30;100.00
48668;BME280;34453;52.198;5.004;2023-05-03T10:00:23;103076.88;;;14.48;100.00
48668;BME280;34453;52.198;5.004;2023-05-03T10:02:51;103073.91;;;14.52;100.00
48668;BME280;34453;52.198;5.004;2023-05-03T10:05:20;103077.38;;;14.53;100.00
48668;BME280;34453;52.198;5.004;2023-05-03T10:07:49;103078.28;;;14.65;100.00
48668;BME280;34453;52.198;5.004;2023-05-03T10:10:18;103063.50;;;14.75;100.00
48668;BME280;34453;52.198;5.004;2023-05-03T10:12:45;103060.44;;;14.92;100.00
48668;BME280;34453;52.198;5.004;2023-05-03T10:15:12;103071.88;;;14.80;100.00
48668;BME280;34453;52.198;5.004;2023-05-03T10:17:41;103080.03;;;14.77;100.00
48668;BME280;34453;52.198;5.004;2023-05-03T10:25:29;103055.16;;;14.92;100.00
48668;BME280;34453;52.198;5.004;2023-05-03T10:28:02;103061.19;;;15.06;100.00
48668;BME280;34453;52.198;5.004;2023-05-03T10:30:32;103049.47;;;15.21;100.00
48668;BME280;34453;52.198;5.004;2023-05-03T10:35:38;103057.38;;;15.21;100.00
48668;BME280;34453;52.198;5.004;2023-05-03T10:38:23;103061.94;;;15.19;100.00
48668;BME280;34453;52.198;5.004;2023-05-03T10:40:50;103051.66;;;15.27;100.00
48668;BME280;34453;52.198;5.004;2023-05-03T10:46:00;103048.28;;;15.48;100.00
48668;BME280;34453;52.198;5.004;2023-05-03T10:48:26;103054.41;;;15.60;100.00
48668;BME280;34453;52.198;5.004;2023-05-03T10:50:53;103056.31;;;15.35;100.00
48668;BME280;34453;52.198;5.004;2023-05-03T10:53:38;103052.38;;;15.63;100.00
48668;BME280;34453;52.198;5.004;2023-05-03T10:56:04;103053.69;;;15.80;100.00
48668;BME280;34453;52.198;5.004;2023-05-03T10:58:35;103035.47;;;15.88;100.00
48668;BME280;34453;52.198;5.004;2023-05-03T11:01:03;103036.56;;;15.86;100.00
48668;BME280;34453;52.198;5.004;2023-05-03T11:06:09;103037.25;;;15.99;100.00
48668;BME280;34453;52.198;5.004;2023-05-03T11:08:34;103024.53;;;16.36;100.00
48668;BME280;34453;52.198;5.004;2023-05-03T11:11:03;103016.69;;;16.46;100.00
48668;BME280;34453;52.198;5.004;2023-05-03T11:13:35;103015.41;;;16.62;100.00
48668;BME280;34453;52.198;5.004;2023-05-03T11:16:01;103017.94;;;16.63;100.00
48668;BME280;34453;52.198;5.004;2023-05-03T11:18:27;103006.59;;;16.72;100.00
48668;BME280;34453;52.198;5.004;2023-05-03T11:20:54;103015.91;;;16.88;100.00
48668;BME280;34453;52.198;5.004;2023-05-03T11:23:25;103011.44;;;16.88;100.00
48668;BME280;34453;52.198;5.004;2023-05-03T11:25:52;103016.28;;;16.83;100.00
48668;BME280;34453;52.198;5.004;2023-05-03T11:28:17;103013.88;;;16.80;100.00
48668;BME280;34453;52.198;5.004;2023-05-03T11:30:45;103012.56;;;16.74;100.00
48668;BME280;34453;52.198;5.004;2023-05-03T11:33:10;103001.22;;;16.63;100.00
48668;BME280;34453;52.198;5.004;2023-05-03T11:35:36;103006.28;;;17.08;100.00
48668;BME280;34453;52.198;5.004;2023-05-03T11:38:02;103007.75;;;17.31;100.00
48668;BME280;34453;52.198;5.004;2023-05-03T11:40:27;103001.69;;;17.10;100.00
48668;BME280;34453;52.198;5.004;2023-05-03T11:42:54;103003.06;;;17.45;100.00
48668;BME280;34453;52.198;5.004;2023-05-03T11:45:21;102998.22;;;17.50;100.00
48668;BME280;34453;52.198;5.004;2023-05-03T11:47:48;103007.44;;;17.65;100.00
48668;BME280;34453;52.198;5.004;2023-05-03T11:50:15;102992.84;;;17.80;100.00
48668;BME280;34453;52.198;5.004;2023-05-03T11:52:40;102992.56;;;17.64;100.00
48668;BME280;34453;52.198;5.004;2023-05-03T11:55:06;102988.66;;;17.78;100.00
48668;BME280;34453;52.198;5.004;2023-05-03T11:57:33;102985.56;;;17.53;100.00
48668;BME280;34453;52.198;5.004;2023-05-03T12:00:15;102988.88;;;17.96;100.00
48668;BME280;34453;52.198;5.004;2023-05-03T12:02:47;102978.44;;;17.94;100.00
48668;BME280;34453;52.198;5.004;2023-05-03T12:05:14;102971.31;;;17.95;100.00
48668;BME280;34453;52.198;5.004;2023-05-03T12:07:39;102965.50;;;17.60;100.00
48668;BME280;34453;52.198;5.004;2023-05-03T12:10:15;102972.28;;;17.84;100.00
48668;BME280;34453;52.198;5.004;2023-05-03T12:12:51;102971.16;;;17.36;100.00
48668;BME280;34453;52.198;5.004;2023-05-03T12:15:26;102965.00;;;17.76;100.00
48668;BME280;34453;52.198;5.004;2023-05-03T12:17:55;102955.16;;;18.17;100.00
48668;BME280;34453;52.198;5.004;2023-05-03T12:20:22;102941.28;;;18.62;100.00
48668;BME280;34453;52.198;5.004;2023-05-03T12:22:52;102950.22;;;18.61;100.00
48668;BME280;34453;52.198;5.004;2023-05-03T12:25:18;102942.66;;;18.67;100.00
48668;BME280;34453;52.198;5.004;2023-05-03T12:27:44;102938.78;;;18.51;100.00
48668;BME280;34453;52.198;5.004;2023-05-03T12:30:10;102935.88;;;18.54;100.00
48668;BME280;34453;52.198;5.004;2023-05-03T12:32:36;102936.53;;;18.56;100.00
48668;BME280;34453;52.198;5.004;2023-05-03T12:35:06;102934.19;;;18.53;100.00
48668;BME280;34453;52.198;5.004;2023-05-03T12:37:33;102944.09;;;18.61;100.00
48668;BME280;34453;52.198;5.004;2023-05-03T12:39:59;102932.56;;;18.90;100.00
48668;BME280;34453;52.198;5.004;2023-05-03T12:42:24;102926.69;;;18.96;100.00
48668;BME280;34453;52.198;5.004;2023-05-03T12:44:50;102925.09;;;19.13;100.00
48668;BME280;34453;52.198;5.004;2023-05-03T12:47:15;102920.47;;;19.15;100.00
48668;BME280;34453;52.198;5.004;2023-05-03T12:49:41;102917.50;;;19.45;100.00
48668;BME280;34453;52.198;5.004;2023-05-03T12:52:06;102899.22;;;19.70;100.00
48668;BME280;34453;52.198;5.004;2023-05-03T12:54:34;102905.19;;;19.72;100.00
48668;BME280;34453;52.198;5.004;2023-05-03T12:57:00;102906.63;;;19.84;100.00
48668;BME280;34453;52.198;5.004;2023-05-03T12:59:28;102907.06;;;19.62;100.00
48668;BME280;34453;52.198;5.004;2023-05-03T13:01:55;102896.13;;;19.65;100.00
48668;BME280;34453;52.198;5.004;2023-05-03T13:04:21;102896.91;;;19.75;100.00